sensor_id;sensor_type;location;lat;lon;timestamp;temperature;humidity
1351;DHT22;669;50.206;9.998;2022-07-18T00:00:53;14.50;35.40
1351;DHT22;669;50.206;9.998;2022-07-18T00:03:21;14.50;34.90
1351;DHT22;669;50.206;9.998;2022-07-18T00:05:49;14.10;35.30
1351;DHT22;669;50.206;9.998;2022-07-18T00:08:17;13.90;36.40
1351;DHT22;669;50.206;9.998;2022-07-18T00:10:44;14.00;36.60
1351;DHT22;669;50.206;9.998;2022-07-18T00:13:12;13.80;36.60
1351;DHT22;669;50.206;9.998;2022-07-18T00:15:40;13.50;37.80
1351;DHT22;669;50.206;9.998;2022-07-18T00:18:10;13.40;38.30
1351;DHT22;669;50.206;9.998;2022-07-18T00:20:38;13.40;38.50
1351;DHT22;669;50.206;9.998;2022-07-18T00:23:06;13.50;37.20
1351;DHT22;669;50.206;9.998;2022-07-18T00:25:34;13.30;37.70
1351;DHT22;669;50.206;9.998;2022-07-18T00:28:02;13.00;38.90
1351;DHT22;669;50.206;9.998;2022-07-18T00:30:30;13.10;38.70
1351;DHT22;669;50.206;9.998;2022-07-18T00:32:58;13.20;38.00
1351;DHT22;669;50.206;9.998;2022-07-18T00:35:27;13.10;38.60
1351;DHT22;669;50.206;9.998;2022-07-18T00:37:55;13.20;38.70
1351;DHT22;669;50.206;9.998;2022-07-18T00:40:23;13.40;37.90
1351;DHT22;669;50.206;9.998;2022-07-18T00:42:51;13.50;38.10
1351;DHT22;669;50.206;9.998;2022-07-18T00:45:19;13.60;37.70
1351;DHT22;669;50.206;9.998;2022-07-18T00:47:47;13.70;37.30
1351;DHT22;669;50.206;9.998;2022-07-18T00:50:17;13.80;37.20
1351;DHT22;669;50.206;9.998;2022-07-18T00:52:47;13.80;36.40
1351;DHT22;669;50.206;9.998;2022-07-18T00:55:15;13.70;36.80
1351;DHT22;669;50.206;9.998;2022-07-18T00:57:43;13.80;36.60
1351;DHT22;669;50.206;9.998;2022-07-18T01:00:15;13.50;37.40
1351;DHT22;669;50.206;9.998;2022-07-18T01:03:01;13.40;37.20
1351;DHT22;669;50.206;9.998;2022-07-18T01:05:29;13.30;38.10
1351;DHT22;669;50.206;9.998;2022-07-18T01:07:58;13.40;38.00
1351;DHT22;669;50.206;9.998;2022-07-18T01:10:26;13.40;37.80
1351;DHT22;669;50.206;9.998;2022-07-18T01:12:54;13.60;37.20
1351;DHT22;669;50.206;9.998;2022-07-18T01:15:22;13.60;37.20
1351;DHT22;669;50.206;9.998;2022-07-18T01:17:50;13.60;36.50
1351;DHT22;669;50.206;9.998;2022-07-18T01:20:18;13.40;36.60
1351;DHT22;669;50.206;9.998;2022-07-18T01:22:48;13.30;37.60
1351;DHT22;669;50.206;9.998;2022-07-18T01:25:15;13.40;37.10
1351;DHT22;669;50.206;9.998;2022-07-18T01:27:44;13.10;37.60
1351;DHT22;669;50.206;9.998;2022-07-18T01:30:12;13.10;37.90
1351;DHT22;669;50.206;9.998;2022-07-18T01:32:41;13.30;37.20
1351;DHT22;669;50.206;9.998;2022-07-18T01:35:09;13.30;37.30
1351;DHT22;669;50.206;9.998;2022-07-18T01:37:37;13.40;37.20
1351;DHT22;669;50.206;9.998;2022-07-18T01:40:09;13.10;37.60
1351;DHT22;669;50.206;9.998;2022-07-18T01:42:37;13.10;37.40
1351;DHT22;669;50.206;9.998;2022-07-18T01:45:06;13.00;37.60
1351;DHT22;669;50.206;9.998;2022-07-18T01:47:34;12.90;37.60
1351;DHT22;669;50.206;9.998;2022-07-18T01:50:03;12.80;38.00
1351;DHT22;669;50.206;9.998;2022-07-18T01:52:32;12.50;39.20
1351;DHT22;669;50.206;9.998;2022-07-18T01:55:00;12.40;39.60
1351;DHT22;669;50.206;9.998;2022-07-18T01:57:29;12.20;40.10
1351;DHT22;669;50.206;9.998;2022-07-18T01:59:57;12.00;40.00
1351;DHT22;669;50.206;9.998;2022-07-18T02:02:25;12.00;40.80
1351;DHT22;669;50.206;9.998;2022-07-18T02:04:53;11.90;40.60
1351;DHT22;669;50.206;9.998;2022-07-18T02:07:32;11.80;41.10
1351;DHT22;669;50.206;9.998;2022-07-18T02:10:03;11.80;41.40
1351;DHT22;669;50.206;9.998;2022-07-18T02:12:33;11.70;42.00
1351;DHT22;669;50.206;9.998;2022-07-18T02:15:02;11.70;41.50
1351;DHT22;669;50.206;9.998;2022-07-18T02:17:30;12.00;40.70
1351;DHT22;669;50.206;9.998;2022-07-18T02:19:58;12.20;39.60
1351;DHT22;669;50.206;9.998;2022-07-18T02:22:27;12.10;38.90
1351;DHT22;669;50.206;9.998;2022-07-18T02:24:54;12.00;40.10
1351;DHT22;669;50.206;9.998;2022-07-18T02:27:22;12.10;39.40
1351;DHT22;669;50.206;9.998;2022-07-18T02:29:52;12.00;39.40
1351;DHT22;669;50.206;9.998;2022-07-18T02:32:19;11.80;40.00
1351;DHT22;669;50.206;9.998;2022-07-18T02:34:49;11.80;40.20
1351;DHT22;669;50.206;9.998;2022-07-18T02:37:18;11.50;40.40
1351;DHT22;669;50.206;9.998;2022-07-18T02:39:45;11.40;41.80
1351;DHT22;669;50.206;9.998;2022-07-18T02:42:13;11.60;41.50
1351;DHT22;669;50.206;9.998;2022-07-18T02:44:41;11.80;40.70
1351;DHT22;669;50.206;9.998;2022-07-18T02:47:11;11.90;40.20
1351;DHT22;669;50.206;9.998;2022-07-18T02:49:38;11.70;40.70
1351;DHT22;669;50.206;9.998;2022-07-18T02:52:08;11.80;39.90
1351;DHT22;669;50.206;9.998;2022-07-18T02:54:37;11.80;39.80
1351;DHT22;669;50.206;9.998;2022-07-18T02:57:05;11.60;40.00
1351;DHT22;669;50.206;9.998;2022-07-18T02:59:33;11.60;40.80
1351;DHT22;669;50.206;9.998;2022-07-18T03:02:01;11.60;40.60
1351;DHT22;669;50.206;9.998;2022-07-18T03:04:31;11.40;42.40
1351;DHT22;669;50.206;9.998;2022-07-18T03:06:59;11.60;41.00
1351;DHT22;669;50.206;9.998;2022-07-18T03:09:27;11.70;40.60
1351;DHT22;669;50.206;9.998;2022-07-18T03:11:55;11.60;41.20
1351;DHT22;669;50.206;9.998;2022-07-18T03:18:06;11.40;42.20
1351;DHT22;669;50.206;9.998;2022-07-18T03:20:36;11.30;42.30
1351;DHT22;669;50.206;9.998;2022-07-18T03:23:04;11.30;42.20
1351;DHT22;669;50.206;9.998;2022-07-18T03:25:33;11.20;42.60
1351;DHT22;669;50.206;9.998;2022-07-18T03:28:01;11.10;42.90
1351;DHT22;669;50.206;9.998;2022-07-18T03:30:29;11.10;43.50
1351;DHT22;669;50.206;9.998;2022-07-18T03:32:57;11.00;42.00
1351;DHT22;669;50.206;9.998;2022-07-18T03:35:31;10.90;42.80
1351;DHT22;669;50.206;9.998;2022-07-18T03:38:01;10.90;42.80
1351;DHT22;669;50.206;9.998;2022-07-18T03:40:29;10.80;42.90
1351;DHT22;669;50.206;9.998;2022-07-18T03:42:57;10.80;42.90
1351;DHT22;669;50.206;9.998;2022-07-18T03:45:25;10.80;42.60
1351;DHT22;669;50.206;9.998;2022-07-18T03:47:53;10.90;42.00
1351;DHT22;669;50.206;9.998;2022-07-18T03:50:21;10.80;42.80
1351;DHT22;669;50.206;9.998;2022-07-18T03:52:50;10.80;42.10
1351;DHT22;669;50.206;9.998;2022-07-18T03:55:19;10.80;41.80
1351;DHT22;669;50.206;9.998;2022-07-18T03:57:47;10.90;43.00
1351;DHT22;669;50.206;9.998;2022-07-18T04:00:15;10.90;43.40
1351;DHT22;669;50.206;9.998;2022-07-18T04:02:47;10.90;43.60
1351;DHT22;669;50.206;9.998;2022-07-18T04:05:16;11.00;43.90
1351;DHT22;669;50.206;9.998;2022-07-18T04:07:44;11.10;42.50
1351;DHT22;669;50.206;9.998;2022-07-18T04:10:12;11.30;43.70
1351;DHT22;669;50.206;9.998;2022-07-18T04:12:49;11.40;42.30
1351;DHT22;669;50.206;9.998;2022-07-18T04:15:19;11.40;42.20
1351;DHT22;669;50.206;9.998;2022-07-18T04:17:47;11.50;42.50
1351;DHT22;669;50.206;9.998;2022-07-18T04:20:16;11.60;42.40
1351;DHT22;669;50.206;9.998;2022-07-18T04:22:46;11.80;42.60
1351;DHT22;669;50.206;9.998;2022-07-18T04:25:14;12.00;42.80
1351;DHT22;669;50.206;9.998;2022-07-18T04:27:43;12.20;42.90
1351;DHT22;669;50.206;9.998;2022-07-18T04:30:13;12.30;43.10
1351;DHT22;669;50.206;9.998;2022-07-18T04:32:41;12.50;42.40
1351;DHT22;669;50.206;9.998;2022-07-18T04:35:10;12.70;42.60
1351;DHT22;669;50.206;9.998;2022-07-18T04:37:39;12.90;43.20
1351;DHT22;669;50.206;9.998;2022-07-18T04:40:09;13.00;42.60
1351;DHT22;669;50.206;9.998;2022-07-18T04:42:38;13.30;42.00
1351;DHT22;669;50.206;9.998;2022-07-18T04:45:06;13.40;41.10
1351;DHT22;669;50.206;9.998;2022-07-18T04:47:36;13.50;42.00
1351;DHT22;669;50.206;9.998;2022-07-18T04:50:05;13.90;42.20
1351;DHT22;669;50.206;9.998;2022-07-18T04:52:37;14.20;41.60
1351;DHT22;669;50.206;9.998;2022-07-18T04:55:07;14.70;41.10
1351;DHT22;669;50.206;9.998;2022-07-18T04:57:37;15.10;39.70
1351;DHT22;669;50.206;9.998;2022-07-18T05:00:07;15.50;38.50
1351;DHT22;669;50.206;9.998;2022-07-18T05:02:40;15.80;39.80
1351;DHT22;669;50.206;9.998;2022-07-18T05:05:09;16.10;39.40
1351;DHT22;669;50.206;9.998;2022-07-18T05:07:38;16.40;39.30
1351;DHT22;669;50.206;9.998;2022-07-18T05:10:07;16.70;37.90
1351;DHT22;669;50.206;9.998;2022-07-18T05:12:36;17.00;35.70
1351;DHT22;669;50.206;9.998;2022-07-18T05:15:05;17.20;35.40
1351;DHT22;669;50.206;9.998;2022-07-18T05:17:34;17.50;34.70
1351;DHT22;669;50.206;9.998;2022-07-18T05:20:04;17.70;34.10
1351;DHT22;669;50.206;9.998;2022-07-18T05:22:32;18.10;34.10
1351;DHT22;669;50.206;9.998;2022-07-18T05:25:00;18.50;33.50
1351;DHT22;669;50.206;9.998;2022-07-18T05:27:28;19.10;32.80
1351;DHT22;669;50.206;9.998;2022-07-18T05:29:56;19.50;31.70
1351;DHT22;669;50.206;9.998;2022-07-18T05:32:25;19.90;32.90
1351;DHT22;669;50.206;9.998;2022-07-18T05:34:53;20.00;32.90
1351;DHT22;669;50.206;9.998;2022-07-18T05:37:22;20.10;32.20
1351;DHT22;669;50.206;9.998;2022-07-18T05:39:50;20.30;31.50
1351;DHT22;669;50.206;9.998;2022-07-18T05:42:19;20.30;31.90
1351;DHT22;669;50.206;9.998;2022-07-18T05:45:08;20.50;30.80
1351;DHT22;669;50.206;9.998;2022-07-18T05:47:36;20.60;30.90
1351;DHT22;669;50.206;9.998;2022-07-18T05:50:06;20.80;30.00
1351;DHT22;669;50.206;9.998;2022-07-18T05:52:36;21.00;30.90
1351;DHT22;669;50.206;9.998;2022-07-18T05:55:05;21.30;30.20
1351;DHT22;669;50.206;9.998;2022-07-18T05:57:34;21.40;29.50
1351;DHT22;669;50.206;9.998;2022-07-18T06:00:03;21.70;29.20
1351;DHT22;669;50.206;9.998;2022-07-18T06:02:31;21.80;29.50
1351;DHT22;669;50.206;9.998;2022-07-18T06:04:59;22.00;29.30
1351;DHT22;669;50.206;9.998;2022-07-18T06:07:48;22.30;28.60
1351;DHT22;669;50.206;9.998;2022-07-18T06:10:16;22.50;30.30
1351;DHT22;669;50.206;9.998;2022-07-18T06:12:44;22.70;30.20
1351;DHT22;669;50.206;9.998;2022-07-18T06:15:14;22.90;29.70
1351;DHT22;669;50.206;9.998;2022-07-18T06:17:42;23.10;30.30
1351;DHT22;669;50.206;9.998;2022-07-18T06:20:11;23.40;28.30
1351;DHT22;669;50.206;9.998;2022-07-18T06:22:39;23.60;26.80
1351;DHT22;669;50.206;9.998;2022-07-18T06:25:09;23.80;27.20
1351;DHT22;669;50.206;9.998;2022-07-18T06:27:37;24.10;27.20
1351;DHT22;669;50.206;9.998;2022-07-18T06:30:06;24.20;26.80
1351;DHT22;669;50.206;9.998;2022-07-18T06:32:36;24.30;27.40
1351;DHT22;669;50.206;9.998;2022-07-18T06:35:05;24.60;25.60
1351;DHT22;669;50.206;9.998;2022-07-18T06:37:33;24.80;26.80
1351;DHT22;669;50.206;9.998;2022-07-18T06:40:00;24.80;25.10
1351;DHT22;669;50.206;9.998;2022-07-18T06:42:31;25.00;25.90
1351;DHT22;669;50.206;9.998;2022-07-18T06:45:01;25.10;24.20
1351;DHT22;669;50.206;9.998;2022-07-18T06:47:37;25.20;22.80
1351;DHT22;669;50.206;9.998;2022-07-18T06:50:05;25.20;21.40
1351;DHT22;669;50.206;9.998;2022-07-18T06:52:33;25.30;21.70
1351;DHT22;669;50.206;9.998;2022-07-18T06:55:01;25.60;21.70
1351;DHT22;669;50.206;9.998;2022-07-18T06:57:31;25.70;21.20
1351;DHT22;669;50.206;9.998;2022-07-18T06:59:59;25.90;20.90
1351;DHT22;669;50.206;9.998;2022-07-18T07:02:27;26.10;18.30
1351;DHT22;669;50.206;9.998;2022-07-18T07:04:54;25.90;19.60
1351;DHT22;669;50.206;9.998;2022-07-18T07:07:22;25.70;21.30
1351;DHT22;669;50.206;9.998;2022-07-18T07:09:50;25.60;20.70
1351;DHT22;669;50.206;9.998;2022-07-18T07:12:18;25.70;21.40
1351;DHT22;669;50.206;9.998;2022-07-18T07:14:47;25.80;19.30
1351;DHT22;669;50.206;9.998;2022-07-18T07:17:15;26.00;20.10
1351;DHT22;669;50.206;9.998;2022-07-18T07:19:43;26.20;19.70
1351;DHT22;669;50.206;9.998;2022-07-18T07:22:12;26.20;22.00
1351;DHT22;669;50.206;9.998;2022-07-18T07:24:40;26.10;21.20
1351;DHT22;669;50.206;9.998;2022-07-18T07:27:08;26.40;20.00
1351;DHT22;669;50.206;9.998;2022-07-18T07:29:36;26.80;19.00
1351;DHT22;669;50.206;9.998;2022-07-18T07:32:05;26.80;20.10
1351;DHT22;669;50.206;9.998;2022-07-18T07:34:33;27.00;19.30
1351;DHT22;669;50.206;9.998;2022-07-18T07:37:01;27.20;19.70
1351;DHT22;669;50.206;9.998;2022-07-18T07:39:29;27.70;18.60
1351;DHT22;669;50.206;9.998;2022-07-18T07:41:57;28.00;19.30
1351;DHT22;669;50.206;9.998;2022-07-18T07:44:30;28.30;18.20
1351;DHT22;669;50.206;9.998;2022-07-18T07:46:58;28.40;18.10
1351;DHT22;669;50.206;9.998;2022-07-18T07:49:28;28.50;17.80
1351;DHT22;669;50.206;9.998;2022-07-18T07:52:00;28.50;18.70
1351;DHT22;669;50.206;9.998;2022-07-18T07:54:28;28.60;17.40
1351;DHT22;669;50.206;9.998;2022-07-18T07:56:56;28.80;17.80
1351;DHT22;669;50.206;9.998;2022-07-18T07:59:24;28.80;17.40
1351;DHT22;669;50.206;9.998;2022-07-18T08:01:52;29.10;16.60
1351;DHT22;669;50.206;9.998;2022-07-18T08:04:20;29.10;18.00
1351;DHT22;669;50.206;9.998;2022-07-18T08:06:49;29.30;16.50
1351;DHT22;669;50.206;9.998;2022-07-18T08:09:17;29.20;17.30
1351;DHT22;669;50.206;9.998;2022-07-18T08:11:45;28.80;17.60
1351;DHT22;669;50.206;9.998;2022-07-18T08:14:13;29.30;18.40
1351;DHT22;669;50.206;9.998;2022-07-18T08:16:41;29.80;17.50
1351;DHT22;669;50.206;9.998;2022-07-18T08:19:09;30.00;15.40
1351;DHT22;669;50.206;9.998;2022-07-18T08:21:37;30.30;16.70
1351;DHT22;669;50.206;9.998;2022-07-18T08:24:06;30.50;17.50
1351;DHT22;669;50.206;9.998;2022-07-18T08:26:34;30.90;18.70
1351;DHT22;669;50.206;9.998;2022-07-18T08:29:06;31.20;16.40
1351;DHT22;669;50.206;9.998;2022-07-18T08:31:34;31.30;18.70
1351;DHT22;669;50.206;9.998;2022-07-18T08:34:03;31.30;16.90
1351;DHT22;669;50.206;9.998;2022-07-18T08:36:32;31.60;16.40
1351;DHT22;669;50.206;9.998;2022-07-18T08:39:06;31.70;14.50
1351;DHT22;669;50.206;9.998;2022-07-18T08:41:36;31.60;14.80
1351;DHT22;669;50.206;9.998;2022-07-18T08:44:05;31.30;15.60
1351;DHT22;669;50.206;9.998;2022-07-18T08:46:35;31.30;16.20
1351;DHT22;669;50.206;9.998;2022-07-18T08:49:03;31.70;15.30
1351;DHT22;669;50.206;9.998;2022-07-18T08:51:32;31.80;15.70
1351;DHT22;669;50.206;9.998;2022-07-18T08:54:02;32.20;15.80
1351;DHT22;669;50.206;9.998;2022-07-18T08:56:31;32.50;14.90
1351;DHT22;669;50.206;9.998;2022-07-18T08:58:59;32.80;15.40
1351;DHT22;669;50.206;9.998;2022-07-18T09:01:29;32.90;16.70
1351;DHT22;669;50.206;9.998;2022-07-18T09:03:57;33.20;16.50
1351;DHT22;669;50.206;9.998;2022-07-18T09:06:48;33.40;14.80
1351;DHT22;669;50.206;9.998;2022-07-18T09:09:17;33.40;13.80
1351;DHT22;669;50.206;9.998;2022-07-18T09:11:53;33.60;13.90
1351;DHT22;669;50.206;9.998;2022-07-18T09:14:35;33.60;12.10
1351;DHT22;669;50.206;9.998;2022-07-18T09:17:09;33.50;16.50
1351;DHT22;669;50.206;9.998;2022-07-18T09:19:40;33.70;13.90
1351;DHT22;669;50.206;9.998;2022-07-18T09:22:17;34.10;12.50
1351;DHT22;669;50.206;9.998;2022-07-18T09:24:54;34.50;12.00
1351;DHT22;669;50.206;9.998;2022-07-18T09:27:26;33.90;13.30
1351;DHT22;669;50.206;9.998;2022-07-18T09:30:18;34.10;12.20
1351;DHT22;669;50.206;9.998;2022-07-18T09:32:49;34.20;12.70
1351;DHT22;669;50.206;9.998;2022-07-18T09:35:20;34.50;11.50
1351;DHT22;669;50.206;9.998;2022-07-18T09:37:56;34.70;11.10
1351;DHT22;669;50.206;9.998;2022-07-18T09:40:27;34.70;11.80
1351;DHT22;669;50.206;9.998;2022-07-18T09:42:57;34.70;12.20
1351;DHT22;669;50.206;9.998;2022-07-18T09:45:28;34.60;11.50
1351;DHT22;669;50.206;9.998;2022-07-18T09:47:58;34.70;11.80
1351;DHT22;669;50.206;9.998;2022-07-18T09:50:28;35.00;11.50
1351;DHT22;669;50.206;9.998;2022-07-18T09:53:02;33.90;12.10
1351;DHT22;669;50.206;9.998;2022-07-18T09:55:52;33.90;12.30
1351;DHT22;669;50.206;9.998;2022-07-18T09:58:22;34.10;13.30
1351;DHT22;669;50.206;9.998;2022-07-18T10:00:52;34.40;12.20
1351;DHT22;669;50.206;9.998;2022-07-18T10:03:21;34.80;11.10
1351;DHT22;669;50.206;9.998;2022-07-18T10:05:50;34.90;11.90
1351;DHT22;669;50.206;9.998;2022-07-18T10:08:20;34.90;11.90
1351;DHT22;669;50.206;9.998;2022-07-18T10:10:50;35.30;11.10
1351;DHT22;669;50.206;9.998;2022-07-18T10:13:21;35.10;12.40
1351;DHT22;669;50.206;9.998;2022-07-18T10:15:50;34.70;11.90
1351;DHT22;669;50.206;9.998;2022-07-18T10:18:20;34.40;12.90
1351;DHT22;669;50.206;9.998;2022-07-18T10:20:52;34.60;11.20
1351;DHT22;669;50.206;9.998;2022-07-18T10:23:25;35.00;10.90
1351;DHT22;669;50.206;9.998;2022-07-18T10:26:12;35.30;10.80
1351;DHT22;669;50.206;9.998;2022-07-18T10:29:10;35.10;12.80
1351;DHT22;669;50.206;9.998;2022-07-18T10:32:01;35.30;10.70
1351;DHT22;669;50.206;9.998;2022-07-18T10:34:32;35.40;12.10
1351;DHT22;669;50.206;9.998;2022-07-18T10:37:08;35.50;10.80
1351;DHT22;669;50.206;9.998;2022-07-18T10:39:37;35.30;12.10
1351;DHT22;669;50.206;9.998;2022-07-18T10:42:20;35.60;10.70
1351;DHT22;669;50.206;9.998;2022-07-18T10:44:52;35.80;10.00
1351;DHT22;669;50.206;9.998;2022-07-18T10:47:20;35.80;10.00
1351;DHT22;669;50.206;9.998;2022-07-18T10:50:17;35.80;10.40
1351;DHT22;669;50.206;9.998;2022-07-18T10:53:01;35.80;11.00
1351;DHT22;669;50.206;9.998;2022-07-18T10:55:37;35.80;10.80
1351;DHT22;669;50.206;9.998;2022-07-18T10:58:20;36.00;10.00
1351;DHT22;669;50.206;9.998;2022-07-18T11:01:04;36.30;9.40
1351;DHT22;669;50.206;9.998;2022-07-18T11:03:33;36.10;10.70
1351;DHT22;669;50.206;9.998;2022-07-18T11:06:01;36.00;10.40
1351;DHT22;669;50.206;9.998;2022-07-18T11:08:32;36.20;10.30
1351;DHT22;669;50.206;9.998;2022-07-18T11:11:18;36.10;9.60
1351;DHT22;669;50.206;9.998;2022-07-18T11:13:46;36.20;10.70
1351;DHT22;669;50.206;9.998;2022-07-18T11:16:23;36.80;9.10
1351;DHT22;669;50.206;9.998;2022-07-18T11:19:14;36.80;9.10
1351;DHT22;669;50.206;9.998;2022-07-18T11:21:43;36.50;9.10
1351;DHT22;669;50.206;9.998;2022-07-18T11:24:12;36.10;10.90
1351;DHT22;669;50.206;9.998;2022-07-18T11:26:45;36.40;9.30
1351;DHT22;669;50.206;9.998;2022-07-18T11:29:16;36.70;9.90
1351;DHT22;669;50.206;9.998;2022-07-18T11:31:47;36.80;11.20
1351;DHT22;669;50.206;9.998;2022-07-18T11:34:16;36.90;9.40
1351;DHT22;669;50.206;9.998;2022-07-18T11:36:46;36.80;9.80
1351;DHT22;669;50.206;9.998;2022-07-18T11:39:15;36.90;9.20
1351;DHT22;669;50.206;9.998;2022-07-18T11:41:54;37.10;9.90
1351;DHT22;669;50.206;9.998;2022-07-18T11:44:22;37.00;8.50
1351;DHT22;669;50.206;9.998;2022-07-18T11:47:05;36.90;8.20
1351;DHT22;669;50.206;9.998;2022-07-18T11:49:35;36.20;10.20
1351;DHT22;669;50.206;9.998;2022-07-18T11:52:03;35.80;10.60
1351;DHT22;669;50.206;9.998;2022-07-18T11:54:31;35.80;10.80
1351;DHT22;669;50.206;9.998;2022-07-18T11:56:59;35.80;10.60
1351;DHT22;669;50.206;9.998;2022-07-18T11:59:41;35.90;10.50
1351;DHT22;669;50.206;9.998;2022-07-18T12:02:12;35.80;9.60
1351;DHT22;669;50.206;9.998;2022-07-18T12:04:40;35.80;11.10
1351;DHT22;669;50.206;9.998;2022-07-18T12:07:13;35.80;12.60
1351;DHT22;669;50.206;9.998;2022-07-18T12:09:41;35.70;10.70
1351;DHT22;669;50.206;9.998;2022-07-18T12:12:10;36.40;9.90
1351;DHT22;669;50.206;9.998;2022-07-18T12:14:55;36.50;9.60
1351;DHT22;669;50.206;9.998;2022-07-18T12:17:25;36.90;9.10
1351;DHT22;669;50.206;9.998;2022-07-18T12:20:09;37.20;8.90
1351;DHT22;669;50.206;9.998;2022-07-18T12:23:04;37.20;9.10
1351;DHT22;669;50.206;9.998;2022-07-18T12:25:55;36.80;9.00
1351;DHT22;669;50.206;9.998;2022-07-18T12:28:25;36.50;9.70
1351;DHT22;669;50.206;9.998;2022-07-18T12:30:54;36.50;11.80
1351;DHT22;669;50.206;9.998;2022-07-18T12:33:28;36.10;9.60
1351;DHT22;669;50.206;9.998;2022-07-18T12:35:57;36.10;10.10
1351;DHT22;669;50.206;9.998;2022-07-18T12:38:25;35.90;10.00
1351;DHT22;669;50.206;9.998;2022-07-18T12:40:55;36.60;9.60
1351;DHT22;669;50.206;9.998;2022-07-18T12:43:26;36.90;9.80
1351;DHT22;669;50.206;9.998;2022-07-18T12:45:55;37.10;12.30
1351;DHT22;669;50.206;9.998;2022-07-18T12:48:24;37.20;9.30
1351;DHT22;669;50.206;9.998;2022-07-18T12:50:59;37.20;9.70
1351;DHT22;669;50.206;9.998;2022-07-18T12:53:30;37.70;8.20
1351;DHT22;669;50.206;9.998;2022-07-18T12:55:58;37.80;9.20
1351;DHT22;669;50.206;9.998;2022-07-18T12:58:26;37.80;8.10
1351;DHT22;669;50.206;9.998;2022-07-18T13:00:54;38.10;7.70
1351;DHT22;669;50.206;9.998;2022-07-18T13:03:31;38.10;7.60
1351;DHT22;669;50.206;9.998;2022-07-18T13:06:01;37.80;7.40
1351;DHT22;669;50.206;9.998;2022-07-18T13:08:29;37.70;8.70
1351;DHT22;669;50.206;9.998;2022-07-18T13:10:57;37.40;9.60
1351;DHT22;669;50.206;9.998;2022-07-18T13:13:26;37.10;8.40
1351;DHT22;669;50.206;9.998;2022-07-18T13:15:54;37.20;10.60
1351;DHT22;669;50.206;9.998;2022-07-18T13:18:22;37.60;8.70
1351;DHT22;669;50.206;9.998;2022-07-18T13:20:50;38.00;9.10
1351;DHT22;669;50.206;9.998;2022-07-18T13:23:20;38.40;8.90
1351;DHT22;669;50.206;9.998;2022-07-18T13:25:48;39.10;7.60
1351;DHT22;669;50.206;9.998;2022-07-18T13:28:15;39.20;8.20
1351;DHT22;669;50.206;9.998;2022-07-18T13:30:43;39.40;9.50
1351;DHT22;669;50.206;9.998;2022-07-18T13:33:11;39.10;8.80
1351;DHT22;669;50.206;9.998;2022-07-18T13:35:39;39.00;8.00
1351;DHT22;669;50.206;9.998;2022-07-18T13:38:07;38.80;8.10
1351;DHT22;669;50.206;9.998;2022-07-18T13:40:36;38.90;8.00
1351;DHT22;669;50.206;9.998;2022-07-18T13:43:04;38.70;8.40
1351;DHT22;669;50.206;9.998;2022-07-18T13:45:32;38.60;8.10
1351;DHT22;669;50.206;9.998;2022-07-18T13:48:00;38.30;8.20
1351;DHT22;669;50.206;9.998;2022-07-18T13:50:28;38.10;9.60
1351;DHT22;669;50.206;9.998;2022-07-18T13:52:56;37.90;10.60
1351;DHT22;669;50.206;9.998;2022-07-18T13:55:24;37.70;11.70
1351;DHT22;669;50.206;9.998;2022-07-18T13:57:53;37.40;10.20
1351;DHT22;669;50.206;9.998;2022-07-18T14:00:21;37.40;10.80
1351;DHT22;669;50.206;9.998;2022-07-18T14:02:49;37.60;9.30
1351;DHT22;669;50.206;9.998;2022-07-18T14:05:17;37.90;7.70
1351;DHT22;669;50.206;9.998;2022-07-18T14:07:45;38.30;7.70
1351;DHT22;669;50.206;9.998;2022-07-18T14:10:15;38.20;7.60
1351;DHT22;669;50.206;9.998;2022-07-18T14:12:43;38.30;7.70
1351;DHT22;669;50.206;9.998;2022-07-18T14:15:13;38.20;7.60
1351;DHT22;669;50.206;9.998;2022-07-18T14:17:41;38.10;7.60
1351;DHT22;669;50.206;9.998;2022-07-18T14:20:09;37.80;7.40
1351;DHT22;669;50.206;9.998;2022-07-18T14:22:39;37.20;8.40
1351;DHT22;669;50.206;9.998;2022-07-18T14:25:10;36.90;8.10
1351;DHT22;669;50.206;9.998;2022-07-18T14:27:38;36.60;9.50
1351;DHT22;669;50.206;9.998;2022-07-18T14:30:09;36.50;8.60
1351;DHT22;669;50.206;9.998;2022-07-18T14:32:40;36.40;9.60
1351;DHT22;669;50.206;9.998;2022-07-18T14:35:09;36.40;9.20
1351;DHT22;669;50.206;9.998;2022-07-18T14:37:37;36.20;9.40
1351;DHT22;669;50.206;9.998;2022-07-18T14:40:06;36.10;10.30
1351;DHT22;669;50.206;9.998;2022-07-18T14:42:34;36.20;8.70
1351;DHT22;669;50.206;9.998;2022-07-18T14:45:03;36.10;8.90
1351;DHT22;669;50.206;9.998;2022-07-18T14:47:31;35.70;9.70
1351;DHT22;669;50.206;9.998;2022-07-18T14:50:02;35.70;9.10
1351;DHT22;669;50.206;9.998;2022-07-18T14:52:31;35.30;9.10
1351;DHT22;669;50.206;9.998;2022-07-18T14:54:59;35.10;9.60
1351;DHT22;669;50.206;9.998;2022-07-18T14:57:27;35.00;9.50
1351;DHT22;669;50.206;9.998;2022-07-18T14:59:54;34.60;9.90
1351;DHT22;669;50.206;9.998;2022-07-18T15:02:22;34.30;10.00
1351;DHT22;669;50.206;9.998;2022-07-18T15:04:51;34.10;11.20
1351;DHT22;669;50.206;9.998;2022-07-18T15:07:20;33.90;12.00
1351;DHT22;669;50.206;9.998;2022-07-18T15:09:48;34.10;9.80
1351;DHT22;669;50.206;9.998;2022-07-18T15:12:16;34.20;10.10
1351;DHT22;669;50.206;9.998;2022-07-18T15:14:44;34.00;9.80
1351;DHT22;669;50.206;9.998;2022-07-18T15:17:12;33.90;10.00
1351;DHT22;669;50.206;9.998;2022-07-18T15:19:39;33.60;10.50
1351;DHT22;669;50.206;9.998;2022-07-18T15:22:07;33.50;10.40
1351;DHT22;669;50.206;9.998;2022-07-18T15:24:37;33.00;10.30
1351;DHT22;669;50.206;9.998;2022-07-18T15:27:05;32.70;11.40
1351;DHT22;669;50.206;9.998;2022-07-18T15:29:32;32.60;10.70
1351;DHT22;669;50.206;9.998;2022-07-18T15:32:00;32.60;11.10
1351;DHT22;669;50.206;9.998;2022-07-18T15:34:34;32.60;11.30
1351;DHT22;669;50.206;9.998;2022-07-18T15:37:02;32.70;10.90
1351;DHT22;669;50.206;9.998;2022-07-18T15:39:31;32.70;10.40
1351;DHT22;669;50.206;9.998;2022-07-18T15:42:00;32.70;10.60
1351;DHT22;669;50.206;9.998;2022-07-18T15:44:28;32.70;10.80
1351;DHT22;669;50.206;9.998;2022-07-18T15:46:56;32.40;12.20
1351;DHT22;669;50.206;9.998;2022-07-18T15:49:24;32.30;13.20
1351;DHT22;669;50.206;9.998;2022-07-18T15:51:52;32.10;11.30
1351;DHT22;669;50.206;9.998;2022-07-18T15:54:20;32.00;11.80
1351;DHT22;669;50.206;9.998;2022-07-18T15:56:48;31.90;13.00
1351;DHT22;669;50.206;9.998;2022-07-18T15:59:17;31.80;15.20
1351;DHT22;669;50.206;9.998;2022-07-18T16:01:45;31.70;12.90
1351;DHT22;669;50.206;9.998;2022-07-18T16:04:14;31.70;12.90
1351;DHT22;669;50.206;9.998;2022-07-18T16:06:42;31.70;12.90
1351;DHT22;669;50.206;9.998;2022-07-18T16:09:10;31.70;11.50
1351;DHT22;669;50.206;9.998;2022-07-18T16:11:38;31.80;11.30
1351;DHT22;669;50.206;9.998;2022-07-18T16:14:07;31.70;11.90
1351;DHT22;669;50.206;9.998;2022-07-18T16:16:37;31.60;12.00
1351;DHT22;669;50.206;9.998;2022-07-18T16:19:06;31.40;12.70
1351;DHT22;669;50.206;9.998;2022-07-18T16:21:36;31.30;12.70
1351;DHT22;669;50.206;9.998;2022-07-18T16:24:05;31.10;15.20
1351;DHT22;669;50.206;9.998;2022-07-18T16:26:33;31.00;13.00
1351;DHT22;669;50.206;9.998;2022-07-18T16:29:01;30.90;12.50
1351;DHT22;669;50.206;9.998;2022-07-18T16:31:28;30.90;12.50
1351;DHT22;669;50.206;9.998;2022-07-18T16:33:58;30.80;14.60
1351;DHT22;669;50.206;9.998;2022-07-18T16:36:26;30.80;14.20
1351;DHT22;669;50.206;9.998;2022-07-18T16:38:54;30.80;13.30
1351;DHT22;669;50.206;9.998;2022-07-18T16:41:23;30.80;12.40
1351;DHT22;669;50.206;9.998;2022-07-18T16:43:51;30.70;12.80